Metar z pełnej godziny Komunikat METAR ze strony awiacja.imgw.pl Metar G00 EPWR METAR EPWR 200400Z 28013KT CAVOK 06/02 Q1018 =